Time;durP1;ratioP1;P1;durP2;ratioP2;P2;SDS_P1;SDS_P2;PMS_P1;PMS_P2;Temp;Humidity;BMP_temperature;BMP_pressure;BME280_temperature;BME280_humidity;BME280_pressure;Samples;Min_cycle;Max_cycle;Signal;HPM_P1;HPM_P2
2024/02/12 00:01:55;;;;;;;3.15;1.83;;;;;;;;;;5030095;28;20125;-80
2024/02/12 00:04:26;;;;;;;4.82;1.85;;;;;;;;;;5034163;28;20060;-80
2024/02/12 00:06:52;;;;;;;;;;;;;;;;;;5009742;28;20128;-79
2024/02/12 00:09:18;;;;;;;2.53;1.55;;;;;;;;;;5028956;28;19959;-79
2024/02/12 00:11:45;;;;;;;4.63;2.08;;;;;;;;;;5022733;28;20032;-78
2024/02/12 00:14:11;;;;;;;3.38;1.80;;;;;;;;;;5034991;28;20159;-81
2024/02/12 00:16:40;;;;;;;3.58;1.85;;;;;;;;;;5028889;28;20069;-80
2024/02/12 00:19:08;;;;;;;3.97;2.17;;;;;;;;;;5012742;28;20030;-80
2024/02/12 00:21:34;;;;;;;4.63;2.40;;;;;;;;;;5054070;28;20227;-80
2024/02/12 00:23:59;;;;;;;6.88;2.53;;;;;;;;;;5028658;28;20124;-79
2024/02/12 00:26:25;;;;;;;2.20;1.75;;;;;;;;;;5025566;28;20037;-79
2024/02/12 00:28:52;;;;;;;1.73;1.33;;;;;;;;;;5025263;28;20038;-80
2024/02/12 00:31:17;;;;;;;2.60;1.27;;;;;;;;;;5044021;28;20044;-80
2024/02/12 00:33:43;;;;;;;2.40;1.73;;;;;;;;;;5036436;28;20044;-80
2024/02/12 00:36:12;;;;;;;5.55;2.20;;;;;;;;;;5033004;28;20045;-80
2024/02/12 00:38:39;;;;;;;2.33;1.50;;;;;;;;;;5037028;28;20096;-80
2024/02/12 00:41:05;;;;;;;2.90;1.88;;;;;;;;;;5041861;28;20043;-80
2024/02/12 00:43:32;;;;;;;3.60;2.33;;;;;;;;;;5018755;28;20124;-79
2024/02/12 00:45:58;;;;;;;3.53;1.83;;;;;;;;;;5036718;28;20037;-79
2024/02/12 00:48:24;;;;;;;2.70;1.63;;;;;;;;;;5037969;28;20566;-81
2024/02/12 00:50:49;;;;;;;3.65;1.90;;;;;;;;;;5033427;28;20046;-81
2024/02/12 00:53:16;;;;;;;4.18;2.00;;;;;;;;;;5048804;28;20025;-79
2024/02/12 00:55:41;;;;;;;4.32;1.73;;;;;;;;;;5043516;28;20091;-80
2024/02/12 00:58:06;;;;;;;2.20;1.30;;;;;;;;;;5031839;28;20060;-80
2024/02/12 01:00:32;;;;;;;2.33;1.38;;;;;;;;;;5023603;28;20048;-80
2024/02/12 01:02:58;;;;;;;5.07;2.08;;;;;;;;;;5036507;28;20041;-79
2024/02/12 01:05:24;;;;;;;4.75;2.10;;;;;;;;;;5050401;28;20083;-80
2024/02/12 01:07:49;;;;;;;1.98;1.13;;;;;;;;;;5034612;28;20087;-80
2024/02/12 01:10:16;;;;;;;2.05;1.45;;;;;;;;;;5017299;28;20037;-80
2024/02/12 01:12:43;;;;;;;3.58;1.45;;;;;;;;;;5040310;28;20041;-80
2024/02/12 01:15:09;;;;;;;1.90;1.00;;;;;;;;;;5036607;28;20033;-80
2024/02/12 01:17:35;;;;;;;3.83;2.05;;;;;;;;;;5012588;28;20137;-80
2024/02/12 01:20:00;;;;;;;1.42;1.30;;;;;;;;;;5033610;28;20056;-80
2024/02/12 01:22:26;;;;;;;2.75;1.40;;;;;;;;;;5028804;28;20086;-80
2024/02/12 01:24:53;;;;;;;3.03;1.80;;;;;;;;;;5028805;28;20094;-80
2024/02/12 01:27:18;;;;;;;2.97;1.83;;;;;;;;;;5048636;28;20033;-79
2024/02/12 01:29:47;;;;;;;2.55;0.88;;;;;;;;;;5041625;28;20036;-81
2024/02/12 01:32:12;;;;;;;2.45;1.50;;;;;;;;;;5026881;28;20576;-80
2024/02/12 01:34:40;;;;;;;4.85;1.88;;;;;;;;;;5016843;28;20069;-81
2024/02/12 01:37:06;;;;;;;1.35;1.05;;;;;;;;;;5038083;28;20040;-82
2024/02/12 01:39:32;;;;;;;2.38;1.48;;;;;;;;;;5015877;28;20095;-81
2024/02/12 01:41:57;;;;;;;2.05;1.00;;;;;;;;;;5025610;28;20461;-79
2024/02/12 01:44:23;;;;;;;3.63;1.25;;;;;;;;;;5039019;28;20032;-80
2024/02/12 01:46:51;;;;;;;4.97;1.50;;;;;;;;;;5025874;28;20057;-79
2024/02/12 01:49:19;;;;;;;4.13;1.73;;;;;;;;;;5044319;28;20083;-80
2024/02/12 01:51:46;;;;;;;3.83;1.52;;;;;;;;;;5023801;28;20140;-79
2024/02/12 01:54:15;;;;;;;5.25;1.52;;;;;;;;;;5035316;28;20041;-80
2024/02/12 01:56:42;;;;;;;3.60;1.77;;;;;;;;;;5033674;28;20962;-78
2024/02/12 01:59:17;;;;;;;2.60;1.40;;;;;;;;;;5038627;28;20090;-80
2024/02/12 02:01:47;;;;;;;5.53;2.03;;;;;;;;;;5040091;28;20038;-80
2024/02/12 02:04:13;;;;;;;5.03;2.15;;;;;;;;;;5042846;28;20190;-79
2024/02/12 02:06:39;;;;;;;5.53;1.77;;;;;;;;;;5020822;28;20522;-79
2024/02/12 02:09:07;;;;;;;8.73;2.10;;;;;;;;;;5034548;28;20036;-79
2024/02/12 02:11:32;;;;;;;3.35;2.15;;;;;;;;;;5028328;28;20040;-80
2024/02/12 02:13:58;;;;;;;2.80;1.35;;;;;;;;;;5040249;28;20033;-80
2024/02/12 02:16:23;;;;;;;3.35;1.83;;;;;;;;;;5027881;28;20870;-79
2024/02/12 02:18:50;;;;;;;4.32;1.83;;;;;;;;;;5019865;28;20497;-79
2024/02/12 02:21:21;;;;;;;3.70;1.60;;;;;;;;;;5037963;28;20064;-79
2024/02/12 02:23:47;;;;;;;2.22;1.50;;;;;;;;;;5005745;28;20065;-79
2024/02/12 02:26:13;;;;;;;3.63;1.95;;;;;;;;;;5030736;28;20057;-79
2024/02/12 02:28:38;;;;;;;3.30;2.47;;;;;;;;;;5003027;28;20064;-79
2024/02/12 02:31:04;;;;;;;4.13;1.98;;;;;;;;;;5019540;28;20041;-79
2024/02/12 02:33:30;;;;;;;2.13;1.25;;;;;;;;;;5045838;28;20040;-79
2024/02/12 02:35:55;;;;;;;4.60;2.20;;;;;;;;;;5042826;28;20593;-79
2024/02/12 02:38:22;;;;;;;3.03;1.90;;;;;;;;;;5026255;28;20124;-79
2024/02/12 02:40:48;;;;;;;3.08;1.52;;;;;;;;;;5032155;28;20044;-80
2024/02/12 02:43:15;;;;;;;1.73;1.20;;;;;;;;;;5036411;28;20029;-79
2024/02/12 02:45:40;;;;;;;4.25;1.90;;;;;;;;;;5021866;28;20034;-80
2024/02/12 02:48:06;;;;;;;3.53;2.08;;;;;;;;;;5023436;28;20116;-80
2024/02/12 02:50:32;;;;;;;2.85;1.60;;;;;;;;;;5024947;28;20540;-79
2024/02/12 02:52:58;;;;;;;2.58;1.05;;;;;;;;;;5030886;28;20461;-79
2024/02/12 02:55:28;;;;;;;2.80;1.88;;;;;;;;;;5023904;28;20127;-79
2024/02/12 02:58:00;;;;;;;3.25;2.08;;;;;;;;;;5041017;28;20037;-80
2024/02/12 03:00:30;;;;;;;2.45;1.98;;;;;;;;;;5041667;28;20441;-80
2024/02/12 03:02:56;;;;;;;4.30;2.00;;;;;;;;;;5034836;28;20033;-80
2024/02/12 03:05:22;;;;;;;3.45;2.20;;;;;;;;;;5034036;28;20044;-80
2024/02/12 03:07:48;;;;;;;3.03;1.95;;;;;;;;;;5031985;28;20574;-80
2024/02/12 03:10:15;;;;;;;1.95;1.27;;;;;;;;;;5023189;28;20047;-80
2024/02/12 03:12:45;;;;;;;2.40;2.05;;;;;;;;;;5040866;28;20133;-79
2024/02/12 03:15:19;;;;;;;2.15;1.88;;;;;;;;;;5035114;28;20029;-80
2024/02/12 03:17:45;;;;;;;4.45;2.10;;;;;;;;;;5048397;28;20028;-79
2024/02/12 03:20:11;;;;;;;4.53;2.00;;;;;;;;;;5032260;28;20414;-80
2024/02/12 03:22:41;;;;;;;4.22;2.03;;;;;;;;;;5004609;28;20525;-80
2024/02/12 03:25:10;;;;;;;3.75;1.50;;;;;;;;;;5020540;28;20057;-80
2024/02/12 03:27:37;;;;;;;5.05;1.48;;;;;;;;;;5046710;28;20078;-79
2024/02/12 03:30:05;;;;;;;1.60;1.35;;;;;;;;;;5043304;28;20503;-78
2024/02/12 03:32:30;;;;;;;1.50;1.10;;;;;;;;;;5030686;28;20487;-79
2024/02/12 03:34:57;;;;;;;2.92;1.67;;;;;;;;;;5019169;28;20123;-79
2024/02/12 03:37:23;;;;;;;1.70;1.10;;;;;;;;;;5030817;28;20043;-78
2024/02/12 03:39:48;;;;;;;1.63;1.42;;;;;;;;;;5022105;28;20037;-80
2024/02/12 03:42:14;;;;;;;2.65;1.42;;;;;;;;;;5012337;28;20037;-79
2024/02/12 03:44:42;;;;;;;3.72;1.33;;;;;;;;;;5028752;28;20280;-78
2024/02/12 03:47:10;;;;;;;1.70;1.50;;;;;;;;;;5024926;28;20048;-78
2024/02/12 04:00:36;;;;;;;5.15;1.77;;;;;;;;;;5032799;28;20056;-80
2024/02/12 04:03:05;;;;;;;1.95;1.48;;;;;;;;;;5039588;28;20044;-78
2024/02/12 04:05:31;;;;;;;3.97;1.88;;;;;;;;;;5009621;28;20053;-80
2024/02/12 04:07:57;;;;;;;4.97;1.80;;;;;;;;;;5000335;28;20034;-79
2024/02/12 04:10:23;;;;;;;4.63;1.65;;;;;;;;;;5029562;28;20702;-79
2024/02/12 04:12:48;;;;;;;3.85;2.22;;;;;;;;;;5041545;28;20569;-79
2024/02/12 04:15:15;;;;;;;3.25;1.85;;;;;;;;;;5026701;28;20077;-78
2024/02/12 04:17:42;;;;;;;3.55;1.70;;;;;;;;;;5030500;28;20110;-78
2024/02/12 04:20:10;;;;;;;2.50;1.25;;;;;;;;;;5024756;28;20033;-78
2024/02/12 04:22:36;;;;;;;2.30;1.55;;;;;;;;;;5028021;28;20041;-78
2024/02/12 04:25:04;;;;;;;2.67;1.42;;;;;;;;;;5032970;28;20041;-79
2024/02/12 04:27:31;;;;;;;2.17;1.45;;;;;;;;;;5018650;28;20044;-80
2024/02/12 04:29:57;;;;;;;2.75;1.55;;;;;;;;;;5019224;28;20041;-79
2024/02/12 04:32:23;;;;;;;1.63;0.98;;;;;;;;;;5036773;28;20041;-79
2024/02/12 04:34:48;;;;;;;3.28;1.80;;;;;;;;;;5039687;28;20037;-79
2024/02/12 04:37:14;;;;;;;2.47;1.30;;;;;;;;;;5031699;28;20591;-79
2024/02/12 04:39:39;;;;;;;2.17;1.85;;;;;;;;;;5009930;28;20042;-79
2024/02/12 04:42:05;;;;;;;3.83;1.73;;;;;;;;;;5034642;28;20135;-79
2024/02/12 04:44:31;;;;;;;2.72;1.98;;;;;;;;;;5036153;28;20377;-79
2024/02/12 04:46:58;;;;;;;3.08;1.50;;;;;;;;;;5035851;28;20461;-79
2024/02/12 04:49:24;;;;;;;3.25;2.00;;;;;;;;;;5023686;28;20033;-78
2024/02/12 04:51:49;;;;;;;7.32;3.38;;;;;;;;;;5043383;28;20033;-79
2024/02/12 04:54:15;;;;;;;7.57;3.38;;;;;;;;;;5043737;28;20029;-79
2024/02/12 04:56:41;;;;;;;2.67;1.60;;;;;;;;;;5032412;28;20056;-78
2024/02/12 04:59:15;;;;;;;2.30;1.65;;;;;;;;;;5052859;28;20100;-78
2024/02/12 05:01:41;;;;;;;4.80;2.40;;;;;;;;;;5034263;28;20053;-79
2024/02/12 05:04:07;;;;;;;5.18;2.38;;;;;;;;;;5041644;28;20057;-78
2024/02/12 05:06:33;;;;;;;2.45;1.88;;;;;;;;;;5049219;28;20040;-78
2024/02/12 05:08:59;;;;;;;2.50;1.60;;;;;;;;;;5035610;28;20033;-78
2024/02/12 05:11:26;;;;;;;2.33;1.92;;;;;;;;;;5027692;28;20115;-78
2024/02/12 05:13:54;;;;;;;5.38;2.60;;;;;;;;;;5021973;28;20043;-77
2024/02/12 05:16:29;;;;;;;3.80;1.92;;;;;;;;;;5040092;28;20122;-78
2024/02/12 05:24:24;;;;;;;2.55;1.60;;;;;;;;;;5027977;28;20083;-79
2024/02/12 05:26:50;;;;;;;3.35;1.60;;;;;;;;;;5037360;28;20041;-79
2024/02/12 05:29:15;;;;;;;2.65;1.65;;;;;;;;;;5059335;28;20128;-79
2024/02/12 05:31:41;;;;;;;2.58;1.67;;;;;;;;;;5047041;28;20052;-79
2024/02/12 05:34:06;;;;;;;2.13;1.65;;;;;;;;;;5040326;28;20045;-78
2024/02/12 05:36:32;;;;;;;3.08;1.77;;;;;;;;;;5038948;28;20075;-79
2024/02/12 05:38:58;;;;;;;2.83;1.42;;;;;;;;;;5032987;28;20034;-80
2024/02/12 05:41:23;;;;;;;3.92;1.52;;;;;;;;;;5029553;28;20040;-78
2024/02/12 05:43:49;;;;;;;2.08;1.73;;;;;;;;;;5044915;28;20407;-80
2024/02/12 05:46:15;;;;;;;2.22;1.67;;;;;;;;;;5035335;28;20063;-79
2024/02/12 05:48:40;;;;;;;2.75;1.70;;;;;;;;;;5023392;28;20137;-79
2024/02/12 05:51:09;;;;;;;5.75;2.05;;;;;;;;;;5034554;28;20101;-79
2024/02/12 05:53:35;;;;;;;2.92;1.58;;;;;;;;;;5026316;28;20034;-79
2024/02/12 05:56:01;;;;;;;6.55;2.60;;;;;;;;;;5018723;28;20128;-80
2024/02/12 05:58:26;;;;;;;3.17;1.40;;;;;;;;;;4992848;28;20061;-79
2024/02/12 06:00:54;;;;;;;2.22;1.38;;;;;;;;;;5016362;28;20049;-80
2024/02/12 06:03:19;;;;;;;4.10;2.28;;;;;;;;;;5022822;28;20044;-79
2024/02/12 06:05:44;;;;;;;4.35;2.20;;;;;;;;;;5034554;28;20041;-79
2024/02/12 06:08:10;;;;;;;5.20;2.65;;;;;;;;;;5031251;28;20555;-79
2024/02/12 06:10:36;;;;;;;2.33;1.70;;;;;;;;;;5010440;28;20112;-79
2024/02/12 06:13:02;;;;;;;3.53;2.30;;;;;;;;;;5039418;28;20047;-79
2024/02/12 06:15:28;;;;;;;3.35;1.98;;;;;;;;;;5019692;28;20075;-80
2024/02/12 06:17:54;;;;;;;2.10;1.77;;;;;;;;;;5026749;28;20578;-79
2024/02/12 06:20:21;;;;;;;3.67;1.80;;;;;;;;;;5021728;28;20070;-80
2024/02/12 06:22:49;;;;;;;2.78;1.67;;;;;;;;;;5032385;28;20049;-79
2024/02/12 06:25:15;;;;;;;2.05;1.33;;;;;;;;;;5044216;28;20053;-79
2024/02/12 06:27:40;;;;;;;2.67;1.83;;;;;;;;;;5027437;28;20591;-79
2024/02/12 06:30:08;;;;;;;2.78;2.28;;;;;;;;;;5001641;28;20049;-79
2024/02/12 06:32:34;;;;;;;3.75;1.70;;;;;;;;;;5012451;28;20046;-79
2024/02/12 06:35:00;;;;;;;1.98;0.82;;;;;;;;;;5026077;28;20033;-78
2024/02/12 06:37:25;;;;;;;2.90;1.95;;;;;;;;;;5037566;28;20082;-79
2024/02/12 06:39:51;;;;;;;3.17;1.40;;;;;;;;;;5028787;28;20069;-79
2024/02/12 06:42:16;;;;;;;3.80;2.30;;;;;;;;;;5031975;28;20128;-79
2024/02/12 06:44:41;;;;;;;1.75;1.40;;;;;;;;;;5020875;28;20052;-79
2024/02/12 06:47:08;;;;;;;2.40;1.67;;;;;;;;;;5006754;28;20092;-79
2024/02/12 06:49:34;;;;;;;1.23;1.08;;;;;;;;;;4998652;28;20037;-80
2024/02/12 06:52:00;;;;;;;3.55;2.33;;;;;;;;;;5017378;28;20041;-80
2024/02/12 06:54:25;;;;;;;1.70;1.27;;;;;;;;;;5024133;28;20048;-80
2024/02/12 06:56:50;;;;;;;3.42;2.40;;;;;;;;;;5049404;28;20037;-79
2024/02/12 06:59:16;;;;;;;5.03;2.05;;;;;;;;;;5044690;28;20045;-79
2024/02/12 07:01:42;;;;;;;2.65;1.90;;;;;;;;;;5035713;28;20475;-81
2024/02/12 07:04:07;;;;;;;4.88;2.40;;;;;;;;;;4995269;28;20090;-79
2024/02/12 07:06:34;;;;;;;4.07;2.58;;;;;;;;;;5035747;28;20151;-80
2024/02/12 07:08:59;;;;;;;3.78;2.47;;;;;;;;;;5028616;28;20041;-80
2024/02/12 07:11:28;;;;;;;3.72;2.30;;;;;;;;;;5031213;28;20068;-81
2024/02/12 07:13:53;;;;;;;3.85;2.42;;;;;;;;;;5032644;28;20120;-79
2024/02/12 07:16:20;;;;;;;3.35;2.30;;;;;;;;;;5029143;28;20061;-80
2024/02/12 07:18:46;;;;;;;3.53;1.90;;;;;;;;;;5025693;28;20041;-79
2024/02/12 07:21:13;;;;;;;4.45;2.20;;;;;;;;;;4995268;28;20041;-79
2024/02/12 07:23:38;;;;;;;2.50;1.88;;;;;;;;;;5025914;28;20673;-79
2024/02/12 07:26:04;;;;;;;3.58;2.22;;;;;;;;;;5011583;28;20041;-80
2024/02/12 07:28:30;;;;;;;1.73;1.60;;;;;;;;;;5027381;28;20037;-80
2024/02/12 07:30:56;;;;;;;7.07;4.90;;;;;;;;;;5031161;28;20051;-79
2024/02/12 07:33:21;;;;;;;5.43;3.20;;;;;;;;;;5021971;28;20033;-78
2024/02/12 07:35:47;;;;;;;7.10;4.82;;;;;;;;;;5030103;28;20463;-80
2024/02/12 07:38:12;;;;;;;5.97;3.08;;;;;;;;;;4996353;28;20451;-80
2024/02/12 07:40:37;;;;;;;4.38;2.72;;;;;;;;;;5030383;28;20036;-79
2024/02/12 07:43:05;;;;;;;3.47;2.30;;;;;;;;;;5032763;28;20049;-79
2024/02/12 07:45:33;;;;;;;3.78;2.13;;;;;;;;;;5033227;28;20052;-80
2024/02/12 07:47:58;;;;;;;3.53;1.67;;;;;;;;;;5034666;28;20045;-81
2024/02/12 07:50:23;;;;;;;3.83;2.50;;;;;;;;;;5023312;28;20127;-80
2024/02/12 07:52:50;;;;;;;4.15;2.25;;;;;;;;;;5032379;28;20092;-79
2024/02/12 07:55:15;;;;;;;3.47;2.17;;;;;;;;;;4994728;28;20050;-79
2024/02/12 07:57:42;;;;;;;2.92;2.30;;;;;;;;;;5022513;28;20055;-81
2024/02/12 08:00:08;;;;;;;4.05;2.50;;;;;;;;;;5033376;28;20095;-80
2024/02/12 08:02:34;;;;;;;2.35;1.55;;;;;;;;;;5032747;28;20577;-78
2024/02/12 08:05:00;;;;;;;2.40;1.77;;;;;;;;;;5039773;28;20086;-79
2024/02/12 08:07:25;;;;;;;4.68;2.50;;;;;;;;;;5037566;28;20041;-77
2024/02/12 08:09:51;;;;;;;5.85;2.60;;;;;;;;;;5016270;28;20522;-79
2024/02/12 08:12:19;;;;;;;3.33;2.20;;;;;;;;;;5028529;28;20117;-80
2024/02/12 08:14:44;;;;;;;1.23;0.85;;;;;;;;;;5036371;28;20037;-79
2024/02/12 08:17:10;;;;;;;2.42;1.65;;;;;;;;;;5034133;28;20134;-79
2024/02/12 08:19:39;;;;;;;2.22;1.88;;;;;;;;;;5038674;28;20132;-79
2024/02/12 08:22:04;;;;;;;2.83;1.90;;;;;;;;;;5036606;28;20041;-80
2024/02/12 08:24:30;;;;;;;1.70;0.90;;;;;;;;;;5033296;28;20029;-79
2024/02/12 08:26:55;;;;;;;3.22;1.75;;;;;;;;;;5024024;28;20053;-79
2024/02/12 08:29:20;;;;;;;3.88;2.25;;;;;;;;;;5016283;28;20033;-79
2024/02/12 08:31:46;;;;;;;3.15;2.30;;;;;;;;;;5026997;28;20041;-79
2024/02/12 08:34:13;;;;;;;2.72;2.28;;;;;;;;;;5022245;28;20090;-77
2024/02/12 08:36:43;;;;;;;2.85;1.85;;;;;;;;;;5029753;28;20033;-78
2024/02/12 08:39:13;;;;;;;2.28;2.08;;;;;;;;;;5022327;28;20703;-79
2024/02/12 08:41:39;;;;;;;2.50;1.80;;;;;;;;;;5036516;28;20234;-79
2024/02/12 08:44:05;;;;;;;2.95;2.15;;;;;;;;;;5014785;28;20515;-80
2024/02/12 08:46:32;;;;;;;2.65;1.80;;;;;;;;;;5028581;28;20138;-78
2024/02/12 08:48:57;;;;;;;2.92;1.65;;;;;;;;;;5037101;28;20330;-79
2024/02/12 08:51:23;;;;;;;2.30;1.92;;;;;;;;;;5040159;28;20028;-79
2024/02/12 08:53:49;;;;;;;2.90;1.85;;;;;;;;;;5030066;28;20037;-80
2024/02/12 08:56:17;;;;;;;2.05;1.52;;;;;;;;;;5030489;28;20033;-79
2024/02/12 08:58:46;;;;;;;4.15;2.75;;;;;;;;;;5019280;28;20174;-78
2024/02/12 09:01:12;;;;;;;4.72;3.17;;;;;;;;;;5032624;28;20051;-79
2024/02/12 09:03:42;;;;;;;3.75;2.75;;;;;;;;;;5030851;28;20053;-79
2024/02/12 09:06:12;;;;;;;2.43;1.47;;;;;;;;;;5027123;28;20638;-80
2024/02/12 09:08:43;;;;;;;5.07;3.17;;;;;;;;;;5033199;28;20068;-80
2024/02/12 09:11:09;;;;;;;6.18;3.10;;;;;;;;;;5030782;28;20070;-80
2024/02/12 09:13:35;;;;;;;5.55;3.40;;;;;;;;;;5014099;28;20044;-79
2024/02/12 09:16:02;;;;;;;6.68;4.05;;;;;;;;;;4994245;28;20029;-79
2024/02/12 09:18:28;;;;;;;4.88;3.58;;;;;;;;;;5035065;28;20440;-81
2024/02/12 09:20:56;;;;;;;6.95;3.70;;;;;;;;;;5034353;28;20120;-80
2024/02/12 09:23:21;;;;;;;6.40;3.75;;;;;;;;;;5045720;28;20033;-80
2024/02/12 09:25:51;;;;;;;8.05;4.05;;;;;;;;;;5039144;28;20033;-80
2024/02/12 09:28:19;;;;;;;6.07;4.05;;;;;;;;;;5016712;28;20040;-79
2024/02/12 09:30:45;;;;;;;4.70;3.45;;;;;;;;;;5026448;28;20029;-79
2024/02/12 09:33:14;;;;;;;7.18;4.70;;;;;;;;;;5042369;28;20147;-81
2024/02/12 09:35:44;;;;;;;10.10;4.90;;;;;;;;;;5044773;28;20501;-81
2024/02/12 09:38:10;;;;;;;9.07;4.80;;;;;;;;;;5043141;28;20082;-80
2024/02/12 09:40:35;;;;;;;8.65;4.97;;;;;;;;;;5021159;28;20037;-79
2024/02/12 09:43:01;;;;;;;8.55;5.30;;;;;;;;;;5032729;28;20052;-80
2024/02/12 09:45:30;;;;;;;4.47;2.85;;;;;;;;;;5037184;28;20041;-80
2024/02/12 09:48:00;;;;;;;7.50;5.28;;;;;;;;;;5007551;28;20053;-80
2024/02/12 09:50:28;;;;;;;5.20;2.88;;;;;;;;;;5020488;28;20029;-79
2024/02/12 09:52:58;;;;;;;11.07;5.10;;;;;;;;;;5034326;28;20033;-79
2024/02/12 09:55:24;;;;;;;3.55;1.67;;;;;;;;;;5033867;28;20041;-79
2024/02/12 09:57:50;;;;;;;3.50;2.20;;;;;;;;;;5033336;28;20036;-80
2024/02/12 10:00:19;;;;;;;8.57;5.30;;;;;;;;;;5024463;28;20029;-79
2024/02/12 10:02:51;;;;;;;6.35;3.80;;;;;;;;;;5022965;28;20056;-79
2024/02/12 10:05:20;;;;;;;7.10;4.63;;;;;;;;;;5036822;28;20036;-80
2024/02/12 10:07:46;;;;;;;9.77;5.70;;;;;;;;;;5017181;28;20041;-79
2024/02/12 10:10:12;;;;;;;9.68;4.82;;;;;;;;;;5010898;28;20674;-81
2024/02/12 10:12:37;;;;;;;2.38;1.83;;;;;;;;;;5015734;28;20127;-79
2024/02/12 10:15:04;;;;;;;8.90;4.95;;;;;;;;;;5035563;28;20124;-79
2024/02/12 10:17:31;;;;;;;4.95;3.00;;;;;;;;;;5013690;28;20098;-81
2024/02/12 10:19:57;;;;;;;3.25;2.63;;;;;;;;;;5026824;28;20033;-80
2024/02/12 10:22:25;;;;;;;7.43;3.53;;;;;;;;;;5022804;28;20045;-80
2024/02/12 10:24:51;;;;;;;10.95;6.00;;;;;;;;;;5036512;28;20444;-79
2024/02/12 10:27:20;;;;;;;5.97;3.80;;;;;;;;;;5039051;28;20118;-80
2024/02/12 10:29:58;;;;;;;9.95;5.30;;;;;;;;;;5032136;28;20041;-79
2024/02/12 10:32:24;;;;;;;1.80;1.38;;;;;;;;;;5019974;28;20044;-80
2024/02/12 10:34:57;;;;;;;9.95;5.20;;;;;;;;;;5037470;28;20120;-81
2024/02/12 10:37:26;;;;;;;9.43;5.78;;;;;;;;;;5035192;28;20041;-80
2024/02/12 10:39:52;;;;;;;7.65;4.55;;;;;;;;;;5018423;28;20537;-79
2024/02/12 10:42:48;;;;;;;8.38;4.32;;;;;;;;;;5031410;28;20054;-80
2024/02/12 10:45:14;;;;;;;7.43;4.15;;;;;;;;;;5027672;28;20513;-78
2024/02/12 10:47:40;;;;;;;12.35;6.20;;;;;;;;;;5035902;28;20044;-79
2024/02/12 10:50:07;;;;;;;10.32;5.25;;;;;;;;;;5037362;28;20136;-80
2024/02/12 10:52:36;;;;;;;4.72;3.22;;;;;;;;;;5028121;28;20044;-80
2024/02/12 10:55:04;;;;;;;5.38;3.53;;;;;;;;;;5037618;28;20041;-79
2024/02/12 10:57:30;;;;;;;10.57;6.05;;;;;;;;;;5030903;28;20041;-79
2024/02/12 11:00:00;;;;;;;5.03;2.97;;;;;;;;;;5025270;28;20032;-78
2024/02/12 11:02:25;;;;;;;4.18;3.00;;;;;;;;;;5028644;28;20048;-80
2024/02/12 11:05:01;;;;;;;5.13;3.13;;;;;;;;;;5021490;28;20067;-80
2024/02/12 11:07:28;;;;;;;8.25;5.32;;;;;;;;;;5029418;28;20478;-80
2024/02/12 11:10:01;;;;;;;11.52;6.13;;;;;;;;;;4994616;28;20092;-80
2024/02/12 11:12:27;;;;;;;12.10;6.35;;;;;;;;;;5017843;28;20049;-78
2024/02/12 11:14:54;;;;;;;4.80;2.92;;;;;;;;;;5015489;28;20283;-80
2024/02/12 11:17:23;;;;;;;7.38;3.90;;;;;;;;;;5050000;28;20112;-79
2024/02/12 11:19:51;;;;;;;9.98;5.47;;;;;;;;;;5036086;28;20055;-81
2024/02/12 11:22:29;;;;;;;10.93;6.13;;;;;;;;;;5026594;28;20188;-79
2024/02/12 11:24:59;;;;;;;8.88;4.82;;;;;;;;;;5045177;28;20040;-79
2024/02/12 11:27:40;;;;;;;10.30;5.70;;;;;;;;;;5017672;28;20581;-81
2024/02/12 11:30:09;;;;;;;11.43;5.45;;;;;;;;;;5000746;28;20049;-80
2024/02/12 11:32:34;;;;;;;10.85;5.03;;;;;;;;;;5037980;28;20531;-79
2024/02/12 11:35:13;;;;;;;8.70;5.53;;;;;;;;;;5029503;28;20032;-79
2024/02/12 11:37:43;;;;;;;8.30;5.18;;;;;;;;;;5042209;28;20034;-79
2024/02/12 11:40:12;;;;;;;9.82;5.88;;;;;;;;;;5029677;28;20048;-80
2024/02/12 11:42:44;;;;;;;9.40;6.03;;;;;;;;;;5026034;28;20052;-79
2024/02/12 11:45:10;;;;;;;3.88;2.80;;;;;;;;;;5043297;28;20067;-80
2024/02/12 11:47:35;;;;;;;3.28;2.38;;;;;;;;;;5025681;28;20045;-80
2024/02/12 11:50:01;;;;;;;7.35;4.10;;;;;;;;;;5018817;28;20542;-80
2024/02/12 11:52:26;;;;;;;13.15;6.80;;;;;;;;;;5022059;28;20044;-80
2024/02/12 11:54:52;;;;;;;9.32;6.32;;;;;;;;;;5042358;28;20052;-80
2024/02/12 11:57:18;;;;;;;15.10;9.82;;;;;;;;;;5030868;28;20041;-77
2024/02/12 11:59:45;;;;;;;23.75;14.38;;;;;;;;;;5010244;28;20047;-80
2024/02/12 12:02:11;;;;;;;46.80;32.20;;;;;;;;;;5018886;28;20534;-81
2024/02/12 12:04:37;;;;;;;19.73;13.60;;;;;;;;;;5019553;28;20131;-80
2024/02/12 12:07:15;;;;;;;13.73;8.55;;;;;;;;;;5023629;28;20037;-81
2024/02/12 12:09:40;;;;;;;15.65;8.05;;;;;;;;;;5034818;28;20040;-80
2024/02/12 12:12:07;;;;;;;10.50;7.18;;;;;;;;;;5029811;28;20067;-80
2024/02/12 12:14:39;;;;;;;16.23;8.23;;;;;;;;;;5022723;28;20040;-81
2024/02/12 12:17:06;;;;;;;11.55;7.03;;;;;;;;;;5029343;28;20044;-82
2024/02/12 12:19:32;;;;;;;11.15;7.20;;;;;;;;;;5043705;28;20114;-80
2024/02/12 12:21:57;;;;;;;14.40;8.07;;;;;;;;;;5034180;28;20390;-82
2024/02/12 12:24:23;;;;;;;14.48;7.72;;;;;;;;;;5029663;28;20397;-80
2024/02/12 12:26:49;;;;;;;15.52;7.68;;;;;;;;;;5034103;28;20036;-81
2024/02/12 12:29:16;;;;;;;12.40;8.00;;;;;;;;;;5025087;28;20593;-81
2024/02/12 12:31:42;;;;;;;11.45;6.30;;;;;;;;;;5032590;28;20061;-82
2024/02/12 12:34:10;;;;;;;6.65;4.63;;;;;;;;;;5040935;28;20091;-82
2024/02/12 12:36:36;;;;;;;14.05;7.90;;;;;;;;;;5029836;28;20126;-83
2024/02/12 12:39:05;;;;;;;10.60;4.85;;;;;;;;;;5024752;28;20076;-80
2024/02/12 12:41:32;;;;;;;14.43;7.43;;;;;;;;;;5023874;28;20053;-81
2024/02/12 12:43:58;;;;;;;9.35;6.47;;;;;;;;;;5015612;28;20036;-81
2024/02/12 12:46:23;;;;;;;10.02;6.38;;;;;;;;;;5023581;28;20082;-81
2024/02/12 12:48:49;;;;;;;8.07;5.70;;;;;;;;;;5018977;28;20045;-80
2024/02/12 12:51:14;;;;;;;9.93;5.30;;;;;;;;;;5031173;28;20037;-82
2024/02/12 12:53:40;;;;;;;14.15;8.38;;;;;;;;;;5047992;28;20033;-81
2024/02/12 12:56:05;;;;;;;12.80;7.32;;;;;;;;;;5044877;28;20509;-82
2024/02/12 12:58:32;;;;;;;14.43;7.63;;;;;;;;;;5032327;28;20049;-82
2024/02/12 13:00:58;;;;;;;6.95;3.75;;;;;;;;;;5002799;28;20657;-80
2024/02/12 13:03:23;;;;;;;9.73;5.80;;;;;;;;;;5013824;28;20454;-80
2024/02/12 13:05:49;;;;;;;15.60;7.80;;;;;;;;;;5035102;28;20029;-80
2024/02/12 13:08:14;;;;;;;12.32;6.70;;;;;;;;;;5035098;28;20545;-80
2024/02/12 13:10:41;;;;;;;11.95;6.07;;;;;;;;;;5031409;28;20044;-82
2024/02/12 13:13:11;;;;;;;10.50;5.10;;;;;;;;;;5029373;28;20040;-81
2024/02/12 13:15:40;;;;;;;15.30;8.20;;;;;;;;;;5036840;28;20040;-81
2024/02/12 13:18:06;;;;;;;16.60;7.85;;;;;;;;;;5018541;28;20037;-82
2024/02/12 13:20:33;;;;;;;7.97;5.15;;;;;;;;;;5030109;28;20055;-80
2024/02/12 13:22:59;;;;;;;7.78;4.43;;;;;;;;;;5039006;28;20072;-80
2024/02/12 13:25:32;;;;;;;6.38;4.38;;;;;;;;;;5039523;28;20091;-81
2024/02/12 13:27:59;;;;;;;12.00;7.43;;;;;;;;;;5042583;28;20067;-80
2024/02/12 13:30:30;;;;;;;9.73;5.95;;;;;;;;;;5032896;28;20037;-81
2024/02/12 13:33:07;;;;;;;11.43;6.30;;;;;;;;;;5027852;28;20039;-81
2024/02/12 13:35:33;;;;;;;8.13;6.20;;;;;;;;;;5026941;28;20039;-81
2024/02/12 13:37:59;;;;;;;11.25;6.50;;;;;;;;;;5006220;28;20164;-82
2024/02/12 13:40:28;;;;;;;10.27;6.80;;;;;;;;;;5000642;28;20573;-81
2024/02/12 13:42:56;;;;;;;9.25;6.40;;;;;;;;;;5033479;28;20284;-80
2024/02/12 13:45:22;;;;;;;5.10;3.30;;;;;;;;;;5035791;28;20541;-79
2024/02/12 13:47:48;;;;;;;10.63;6.32;;;;;;;;;;5026692;28;20090;-81
2024/02/12 13:50:14;;;;;;;6.47;4.32;;;;;;;;;;5031216;28;20041;-81
2024/02/12 13:52:40;;;;;;;10.60;6.22;;;;;;;;;;5016830;28;20112;-81
2024/02/12 13:55:10;;;;;;;7.82;4.43;;;;;;;;;;5022356;28;20602;-81
2024/02/12 13:57:39;;;;;;;8.77;5.43;;;;;;;;;;5006126;28;20444;-82
2024/02/12 14:00:17;;;;;;;13.63;6.25;;;;;;;;;;5019917;28;20387;-81
2024/02/12 14:02:53;;;;;;;8.15;5.10;;;;;;;;;;5013677;28;20120;-81
2024/02/12 14:05:20;;;;;;;9.65;6.03;;;;;;;;;;5024704;28;20033;-80
2024/02/12 14:07:49;;;;;;;10.57;5.93;;;;;;;;;;5037408;28;20159;-80
2024/02/12 14:10:18;;;;;;;4.32;3.33;;;;;;;;;;5024728;28;20037;-81
2024/02/12 14:12:47;;;;;;;8.60;5.30;;;;;;;;;;5027446;28;20045;-82
2024/02/12 14:15:13;;;;;;;10.55;6.15;;;;;;;;;;5026258;28;20038;-82
2024/02/12 14:17:43;;;;;;;13.00;6.75;;;;;;;;;;5020784;28;20294;-81
2024/02/12 14:20:25;;;;;;;8.10;4.63;;;;;;;;;;5023190;28;20043;-81
2024/02/12 14:22:54;;;;;;;4.93;3.60;;;;;;;;;;5024533;28;20066;-82
2024/02/12 14:25:23;;;;;;;8.30;5.45;;;;;;;;;;5037320;28;20068;-81
2024/02/12 14:27:50;;;;;;;9.45;5.38;;;;;;;;;;5034332;28;20041;-81
2024/02/12 14:30:18;;;;;;;8.88;5.25;;;;;;;;;;5016554;28;20044;-81
2024/02/12 14:32:50;;;;;;;12.02;5.53;;;;;;;;;;5035725;28;20599;-80
2024/02/12 14:35:18;;;;;;;8.57;5.28;;;;;;;;;;5032735;28;20044;-81
2024/02/12 14:37:45;;;;;;;9.70;6.40;;;;;;;;;;5024728;28;20121;-82
2024/02/12 14:40:11;;;;;;;12.77;5.95;;;;;;;;;;5035842;28;20072;-81
2024/02/12 14:42:38;;;;;;;9.95;5.65;;;;;;;;;;5017837;28;20065;-81
2024/02/12 14:45:08;;;;;;;10.18;6.20;;;;;;;;;;5013926;28;20045;-81
2024/02/12 14:47:33;;;;;;;8.85;5.57;;;;;;;;;;5022388;28;20133;-81
2024/02/12 14:49:59;;;;;;;7.40;3.75;;;;;;;;;;5018952;28;20112;-81
2024/02/12 14:52:25;;;;;;;9.52;5.72;;;;;;;;;;5014274;28;20125;-81
2024/02/12 14:54:51;;;;;;;7.22;4.95;;;;;;;;;;5014789;28;20819;-81
2024/02/12 14:57:16;;;;;;;7.95;4.82;;;;;;;;;;5023732;28;20132;-80